createdAt,value
2019-03-30T00:03:01.590Z,82.59
2019-03-30T00:08:05.443Z,82.20
2019-03-30T00:13:09.387Z,81.43
2019-03-30T00:18:13.156Z,81.56
2019-03-30T00:23:17.064Z,82.67
2019-03-30T00:28:20.799Z,82.79
2019-03-30T00:33:24.689Z,82.20
2019-03-30T00:38:28.421Z,82.14
2019-03-30T00:43:32.218Z,83.36
2019-03-30T00:48:36.029Z,84.31
2019-03-30T00:53:40.147Z,83.57
2019-03-30T00:58:44.287Z,83.09
2019-03-30T01:03:48.032Z,83.11
2019-03-30T01:08:51.904Z,84.49
2019-03-30T01:13:55.707Z,85.55
2019-03-30T01:18:59.472Z,85.50
2019-03-30T01:24:03.253Z,85.32
2019-03-30T01:29:07.222Z,85.55
2019-03-30T01:34:11.110Z,85.75
2019-03-30T01:39:15.070Z,85.32
2019-03-30T01:44:18.893Z,85.17
2019-03-30T01:49:23.267Z,85.21
2019-03-30T01:54:27.345Z,84.99
2019-03-30T01:59:31.085Z,85.44
2019-03-30T02:04:34.947Z,85.98
2019-03-30T02:09:38.889Z,86.18
2019-03-30T02:14:42.955Z,86.06
2019-03-30T02:19:47.233Z,85.57
2019-03-30T02:24:51.183Z,85.30
2019-03-30T02:29:54.971Z,85.40
2019-03-30T02:34:58.767Z,85.23
2019-03-30T02:40:02.559Z,84.04
2019-03-30T02:45:06.652Z,84.08
2019-03-30T02:50:10.663Z,85.48
2019-03-30T02:55:14.407Z,85.33
2019-03-30T03:00:19.244Z,85.13
2019-03-30T03:05:23.046Z,85.85
2019-03-30T03:10:26.915Z,85.05
2019-03-30T03:15:30.788Z,84.92
2019-03-30T03:20:34.778Z,85.16
2019-03-30T03:25:38.509Z,86.66
2019-03-30T03:30:42.307Z,88.68
2019-03-30T03:35:46.098Z,88.59
2019-03-30T03:40:50.259Z,88.15
2019-03-30T03:45:54.267Z,87.63
2019-03-30T03:51:02.781Z,86.75
2019-03-30T03:56:07.364Z,86.70
2019-03-30T04:01:14.155Z,85.95
2019-03-30T04:06:21.385Z,85.01
2019-03-30T04:11:30.250Z,84.77
2019-03-30T04:16:34.209Z,84.81
2019-03-30T04:21:44.507Z,86.62
2019-03-30T04:26:43.704Z,87.66
2019-03-30T04:31:47.508Z,87.15
2019-03-30T04:36:51.339Z,88.34
2019-03-30T04:41:55.297Z,87.98
2019-03-30T04:46:59.658Z,87.98
2019-03-30T04:52:03.935Z,88.64
2019-03-30T04:57:07.897Z,89.09
2019-03-30T05:02:11.707Z,89.74
2019-03-30T05:07:15.995Z,90.91
2019-03-30T05:12:19.888Z,90.95
2019-03-30T05:17:23.801Z,90.42
2019-03-30T05:22:27.848Z,90.79
2019-03-30T05:27:32.132Z,90.37
2019-03-30T05:32:36.012Z,89.18
2019-03-30T05:37:39.885Z,85.79
2019-03-30T05:42:43.686Z,85.44
2019-03-30T05:47:47.441Z,85.04
2019-03-30T05:52:51.237Z,83.12
2019-03-30T05:57:55.230Z,83.35
2019-03-30T06:02:59.031Z,83.07
2019-03-30T06:08:02.765Z,81.98
2019-03-30T06:13:06.663Z,77.21
2019-03-30T06:18:11.506Z,70.46
2019-03-30T06:23:15.458Z,67.56
2019-03-30T06:28:19.373Z,68.36
2019-03-30T06:33:23.334Z,72.65
2019-03-30T06:38:27.470Z,74.27
2019-03-30T06:43:31.216Z,75.10
2019-03-30T06:48:36.255Z,74.65
2019-03-30T06:53:40.278Z,74.46
2019-03-30T06:58:44.158Z,73.62
2019-03-30T07:03:48.091Z,74.84
2019-03-30T07:08:55.017Z,75.30
2019-03-30T07:14:03.279Z,75.40
2019-03-30T07:19:07.113Z,74.58
2019-03-30T07:24:10.905Z,74.41
2019-03-30T07:29:15.155Z,73.33
2019-03-30T07:34:18.920Z,72.03
2019-03-30T07:39:23.034Z,71.03
2019-03-30T07:44:26.939Z,72.34
2019-03-30T07:49:30.715Z,70.04
2019-03-30T07:54:34.838Z,69.89
2019-03-30T07:59:38.815Z,68.67
2019-03-30T08:04:42.622Z,68.36
2019-03-30T08:09:46.411Z,67.69
2019-03-30T08:14:50.185Z,67.75
2019-03-30T08:19:54.063Z,68.01
2019-03-30T08:24:57.853Z,66.18
2019-03-30T08:30:01.915Z,65.54
2019-03-30T08:35:07.299Z,63.66
2019-03-30T08:40:11.364Z,64.73
2019-03-30T08:45:15.351Z,66.04
2019-03-30T08:50:19.128Z,63.19
2019-03-30T08:55:23.023Z,63.23
2019-03-30T09:00:43.240Z,62.74
2019-03-30T09:05:47.222Z,62.12
2019-03-30T09:10:51.019Z,61.80
2019-03-30T09:15:55.094Z,60.97
2019-03-30T09:20:59.052Z,61.06
2019-03-30T09:26:03.398Z,60.22
2019-03-30T09:31:07.324Z,60.40
2019-03-30T09:36:11.144Z,60.10
2019-03-30T09:41:14.906Z,60.06
2019-03-30T09:46:19.009Z,59.76
2019-03-30T09:51:22.841Z,60.62
2019-03-30T09:56:26.638Z,57.89
2019-03-30T10:01:30.813Z,56.34
2019-03-30T10:06:34.882Z,56.96
2019-03-30T10:11:38.839Z,54.83
2019-03-30T10:16:42.725Z,56.66
2019-03-30T10:21:46.684Z,54.57
2019-03-30T10:26:50.457Z,55.44
2019-03-30T10:31:54.364Z,52.68
2019-03-30T10:36:58.248Z,52.20
2019-03-30T10:42:02.072Z,51.77
2019-03-30T10:48:29.994Z,49.71
2019-03-30T10:53:33.782Z,49.04
2019-03-30T10:58:38.076Z,48.21
2019-03-30T11:03:41.822Z,50.25
2019-03-30T11:08:45.635Z,49.66
2019-03-30T11:13:49.390Z,47.06
2019-03-30T11:18:53.506Z,46.28
2019-03-30T11:23:57.288Z,48.50
2019-03-30T11:29:01.048Z,45.88
2019-03-30T11:34:05.445Z,44.63
2019-03-30T11:39:09.465Z,44.65
2019-03-30T11:44:13.227Z,44.49
2019-03-30T11:49:17.222Z,43.05
2019-03-30T11:54:21.152Z,43.19
2019-03-30T11:59:25.005Z,43.41
2019-03-30T12:04:29.042Z,42.88
2019-03-30T12:09:32.940Z,43.11
2019-03-30T12:14:36.844Z,41.88
2019-03-30T12:19:40.593Z,43.73
2019-03-30T12:24:44.561Z,41.94
2019-03-30T12:29:48.835Z,41.04
2019-03-30T12:34:53.101Z,42.23
2019-03-30T12:39:58.423Z,39.75
2019-03-30T12:45:02.886Z,40.77
2019-03-30T12:50:06.999Z,38.85
2019-03-30T12:55:11.128Z,39.72
2019-03-30T13:00:15.416Z,38.95
2019-03-30T13:05:19.522Z,41.83
2019-03-30T13:10:23.441Z,39.18
2019-03-30T13:15:27.349Z,36.46
2019-03-30T13:20:31.507Z,38.65
2019-03-30T13:25:35.338Z,36.50
2019-03-30T13:30:39.561Z,34.21
2019-03-30T13:35:43.350Z,35.24
2019-03-30T13:40:47.921Z,38.08
2019-03-30T14:01:52.350Z,33.32
2019-03-30T14:07:24.591Z,33.51
2019-03-30T14:12:28.509Z,34.37
2019-03-30T14:17:32.507Z,31.96
2019-03-30T14:22:36.774Z,32.53
2019-03-30T14:27:40.792Z,30.70
2019-03-30T14:32:45.078Z,30.60
2019-03-30T14:37:49.372Z,31.78
2019-03-30T14:42:53.473Z,32.31
2019-03-30T14:47:58.177Z,31.94
2019-03-30T14:53:02.770Z,31.65
2019-03-30T14:58:08.122Z,31.57
2019-03-30T15:03:12.272Z,32.06
2019-03-30T15:32:29.404Z,32.96
2019-03-30T15:37:33.492Z,33.56
2019-03-30T15:42:40.085Z,34.84
2019-03-30T15:47:43.137Z,37.89
2019-03-30T15:52:47.448Z,36.92
2019-03-30T15:57:51.281Z,38.90
2019-03-30T16:02:55.259Z,38.98
2019-03-30T16:07:59.160Z,39.90
2019-03-30T16:13:03.034Z,40.56
2019-03-30T16:18:06.935Z,40.62
2019-03-30T16:23:10.737Z,40.84
2019-03-30T16:28:14.527Z,40.82
2019-03-30T16:33:18.371Z,41.31
2019-03-30T16:38:22.336Z,40.99
2019-03-30T16:43:26.159Z,40.87
2019-03-30T16:48:29.978Z,40.80
2019-03-30T16:53:33.845Z,40.84
2019-03-30T16:58:38.000Z,40.97
2019-03-30T17:03:41.776Z,41.45
2019-03-30T17:08:46.021Z,41.41
2019-03-30T17:13:49.913Z,41.59
2019-03-30T17:18:53.681Z,42.93
2019-03-30T17:23:57.836Z,43.50
2019-03-30T17:29:01.743Z,44.03
2019-03-30T17:34:05.632Z,45.51
2019-03-30T17:39:11.216Z,46.02
2019-03-30T17:44:15.066Z,46.57
2019-03-30T17:49:18.915Z,46.34
2019-03-30T17:54:22.716Z,46.90
2019-03-30T17:59:28.304Z,49.07
2019-03-30T18:04:32.189Z,50.58
2019-03-30T18:09:36.060Z,51.94
2019-03-30T18:14:40.071Z,51.16
2019-03-30T18:19:44.101Z,52.92
2019-03-30T18:24:48.412Z,51.12
2019-03-30T18:29:52.584Z,53.22
2019-03-30T18:34:57.521Z,53.14
2019-03-30T18:40:01.992Z,51.54
2019-03-30T18:45:07.543Z,54.69
2019-03-30T18:50:13.097Z,53.37
2019-03-30T18:55:22.931Z,55.66
2019-03-30T19:00:27.499Z,57.35
2019-03-30T19:05:31.347Z,55.85
2019-03-30T19:10:35.108Z,58.34
2019-03-30T19:15:39.191Z,59.11
2019-03-30T19:20:43.057Z,59.05
2019-03-30T19:25:46.865Z,59.97
2019-03-30T19:30:50.978Z,60.92
2019-03-30T19:35:54.859Z,60.88
2019-03-30T19:40:58.789Z,62.15
2019-03-30T19:46:02.999Z,64.76
2019-03-30T19:51:06.825Z,64.43
2019-03-30T19:56:10.732Z,64.72
2019-03-30T20:01:14.640Z,63.49
2019-03-30T20:06:18.822Z,66.66
2019-03-30T20:11:22.670Z,70.86
2019-03-30T20:16:26.496Z,71.26
2019-03-30T20:21:30.298Z,69.03
2019-03-30T20:26:34.416Z,69.37
2019-03-30T20:31:38.609Z,68.91
2019-03-30T20:36:42.406Z,69.52
2019-03-30T20:41:46.283Z,72.95
2019-03-30T20:46:50.560Z,75.13
2019-03-30T20:51:54.928Z,74.38
2019-03-30T20:56:58.966Z,71.88
2019-03-30T21:02:02.710Z,70.92
2019-03-30T21:07:06.474Z,73.76
2019-03-30T21:12:10.250Z,75.67
2019-03-30T21:17:14.062Z,77.26
2019-03-30T21:22:17.978Z,77.91
2019-03-30T21:27:21.938Z,76.60
2019-03-30T21:32:25.812Z,77.64
2019-03-30T21:37:29.677Z,79.79
2019-03-30T21:42:33.901Z,78.25
2019-03-30T21:47:38.281Z,76.15
2019-03-30T21:52:42.122Z,77.34
2019-03-30T21:57:45.897Z,76.49
2019-03-30T22:02:49.744Z,75.59
2019-03-30T22:07:53.540Z,75.04
2019-03-30T22:12:57.340Z,74.42
2019-03-30T22:18:01.328Z,74.92
2019-03-30T22:23:05.172Z,75.11
2019-03-30T22:28:08.942Z,75.12
2019-03-30T22:33:13.110Z,75.51
2019-03-30T22:38:16.903Z,75.60
2019-03-30T22:43:20.669Z,75.91
2019-03-30T22:48:24.521Z,76.03
2019-03-30T22:53:28.296Z,77.05
2019-03-30T22:58:32.153Z,77.74
2019-03-30T23:03:36.042Z,78.22
2019-03-30T23:08:40.392Z,79.04
2019-03-30T23:13:44.278Z,77.95
2019-03-30T23:18:48.091Z,77.42
2019-03-30T23:23:51.870Z,78.24
2019-03-30T23:28:59.191Z,78.67
2019-03-30T23:34:01.425Z,78.60
2019-03-30T23:39:07.635Z,78.28
2019-03-30T23:44:11.395Z,78.02
2019-03-30T23:49:15.588Z,77.50
2019-03-30T23:54:19.523Z,81.45
2019-03-30T23:59:23.314Z,80.55
